Time;durP1;ratioP1;P1;durP2;ratioP2;P2;SDS_P1;SDS_P2;PMS_P1;PMS_P2;Temp;Humidity;BMP_temperature;BMP_pressure;BME280_temperature;BME280_humidity;BME280_pressure;Samples;Min_cycle;Max_cycle;Signal;HPM_P1;HPM_P2
2021/04/08 00:01:32;;;;;;;1.83;0.90;;;4.20;88.80;;;;;;4995049;28;20030;-80
2021/04/08 00:03:59;;;;;;;4.07;0.90;;;4.10;89.00;;;;;;4977705;28;20062;-80
2021/04/08 00:06:24;;;;;;;2.45;0.88;;;4.10;89.20;;;;;;4977512;28;20068;-80
2021/04/08 00:08:50;;;;;;;1.65;0.90;;;4.10;89.30;;;;;;4995487;28;20085;-81
2021/04/08 00:11:16;;;;;;;3.35;1.10;;;4.00;89.30;;;;;;4977858;28;20485;-80
2021/04/08 00:13:41;;;;;;;3.40;1.00;;;4.00;89.30;;;;;;4995187;28;20069;-82
2021/04/08 00:16:07;;;;;;;2.00;0.85;;;4.00;89.10;;;;;;4997385;28;20027;-80
2021/04/08 00:18:33;;;;;;;1.75;0.95;;;4.00;89.30;;;;;;4996782;28;20113;-80
2021/04/08 00:20:59;;;;;;;3.63;1.10;;;4.00;89.40;;;;;;4994934;28;20022;-80
2021/04/08 00:23:25;;;;;;;3.25;0.95;;;4.00;89.60;;;;;;4994458;28;20032;-80
2021/04/08 00:25:51;;;;;;;2.90;0.95;;;4.00;89.60;;;;;;4977526;28;20026;-80
2021/04/08 00:28:17;;;;;;;2.38;1.13;;;4.00;89.70;;;;;;4977480;28;20030;-79
2021/04/08 00:30:43;;;;;;;2.53;0.75;;;4.00;89.80;;;;;;4994302;28;20118;-79
2021/04/08 00:33:13;;;;;;;7.43;1.00;;;3.90;89.80;;;;;;4994914;28;20114;-81
2021/04/08 00:35:39;;;;;;;2.05;1.10;;;4.00;89.90;;;;;;4994190;28;20047;-80
2021/04/08 00:38:05;;;;;;;3.38;1.00;;;3.90;89.80;;;;;;4994672;28;20037;-80
2021/04/08 00:40:32;;;;;;;5.75;2.47;;;3.90;89.80;;;;;;4994101;28;20088;-79
2021/04/08 00:42:57;;;;;;;6.70;1.30;;;3.90;89.90;;;;;;4977282;28;20059;-80
2021/04/08 00:45:23;;;;;;;1.20;0.80;;;3.90;90.00;;;;;;4994130;28;20366;-79
2021/04/08 00:47:49;;;;;;;1.13;0.82;;;3.90;90.00;;;;;;4993987;28;20038;-80
2021/04/08 00:50:17;;;;;;;5.10;1.20;;;3.80;90.00;;;;;;4994870;28;20022;-81
2021/04/08 00:52:50;;;;;;;1.80;0.90;;;3.80;90.00;;;;;;4976916;28;20079;-80
2021/04/08 00:55:17;;;;;;;2.75;1.23;;;3.90;90.00;;;;;;4994716;28;20018;-80
2021/04/08 00:57:43;;;;;;;4.32;1.60;;;3.90;90.00;;;;;;4993512;28;20022;-81
2021/04/08 01:00:09;;;;;;;2.45;1.38;;;3.80;89.70;;;;;;4994575;28;20423;-80
2021/04/08 01:02:35;;;;;;;2.38;1.42;;;3.80;90.00;;;;;;4993400;28;20110;-80
2021/04/08 01:05:03;;;;;;;2.10;1.40;;;3.80;90.00;;;;;;4976873;28;20026;-80
2021/04/08 01:07:28;;;;;;;4.88;1.30;;;3.70;90.00;;;;;;4993714;28;20069;-79
2021/04/08 01:09:54;;;;;;;2.03;1.02;;;3.70;90.00;;;;;;4994214;28;20455;-80
2021/04/08 01:12:20;;;;;;;1.80;1.08;;;3.70;90.00;;;;;;4994063;28;20054;-80
2021/04/08 01:14:46;;;;;;;0.77;0.75;;;3.70;90.00;;;;;;4993392;28;20081;-79
2021/04/08 01:17:22;;;;;;;3.38;1.45;;;3.70;90.00;;;;;;4993984;28;20026;-80
2021/04/08 01:20:09;;;;;;;7.93;1.17;;;3.70;90.00;;;;;;4993297;28;20030;-80
2021/04/08 01:22:48;;;;;;;1.77;1.00;;;3.70;90.00;;;;;;4993539;28;20105;-80
2021/04/08 01:25:52;;;;;;;2.03;0.98;;;3.70;90.00;;;;;;4976683;28;20390;-79
2021/04/08 01:28:28;;;;;;;1.10;0.90;;;3.70;90.00;;;;;;4993441;28;20414;-79
2021/04/08 01:30:56;;;;;;;1.30;0.70;;;3.70;90.00;;;;;;4993793;28;20026;-80
2021/04/08 01:33:48;;;;;;;2.63;1.25;;;3.70;90.00;;;;;;4976163;28;20022;-79
2021/04/08 01:36:20;;;;;;;4.20;1.75;;;3.70;90.10;;;;;;4976091;28;20081;-80
2021/04/08 01:38:54;;;;;;;1.88;1.33;;;3.60;90.00;;;;;;4992821;28;20279;-79
2021/04/08 01:41:23;;;;;;;1.85;1.30;;;3.70;90.30;;;;;;4993991;28;20049;-81
2021/04/08 01:43:50;;;;;;;3.92;1.52;;;3.60;90.00;;;;;;4992746;28;20113;-80
2021/04/08 01:46:19;;;;;;;3.22;1.13;;;3.60;90.00;;;;;;4975993;28;20492;-80
2021/04/08 01:48:49;;;;;;;6.30;1.52;;;3.70;90.10;;;;;;4975359;28;20471;-80
2021/04/08 01:51:15;;;;;;;1.38;1.05;;;3.70;90.10;;;;;;4975978;28;20038;-81
2021/04/08 01:53:47;;;;;;;1.63;1.33;;;3.70;90.00;;;;;;4992442;28;20022;-81
2021/04/08 01:56:16;;;;;;;3.20;1.73;;;3.70;90.00;;;;;;4993212;28;20033;-80
2021/04/08 01:58:43;;;;;;;2.05;1.30;;;3.70;89.90;;;;;;4992747;28;20042;-80
2021/04/08 02:01:09;;;;;;;5.07;1.60;;;3.70;89.80;;;;;;4993421;28;20473;-80
2021/04/08 02:03:36;;;;;;;2.58;1.42;;;3.80;89.80;;;;;;4975258;28;20028;-80
2021/04/08 02:06:07;;;;;;;1.98;1.10;;;3.80;89.60;;;;;;4993209;28;20025;-80
2021/04/08 02:08:34;;;;;;;2.00;1.25;;;3.90;89.60;;;;;;4992677;28;20038;-80
2021/04/08 02:11:01;;;;;;;6.63;1.50;;;3.90;89.40;;;;;;4975476;28;20500;-80
2021/04/08 02:13:28;;;;;;;7.65;1.92;;;3.90;89.30;;;;;;4975358;28;20032;-79
2021/04/08 02:15:55;;;;;;;3.78;1.25;;;4.00;89.30;;;;;;4993100;28;20449;-81
2021/04/08 02:18:22;;;;;;;1.85;1.17;;;4.00;89.20;;;;;;4992647;28;20140;-80
2021/04/08 02:20:53;;;;;;;4.60;1.35;;;4.00;89.10;;;;;;4974751;28;20462;-80
2021/04/08 02:23:25;;;;;;;2.58;1.50;;;4.10;89.20;;;;;;4992615;28;20101;-80
2021/04/08 02:25:53;;;;;;;6.35;1.15;;;4.10;89.00;;;;;;4974655;28;20085;-80
2021/04/08 02:28:20;;;;;;;1.50;1.15;;;4.10;89.10;;;;;;4974992;28;20019;-81
2021/04/08 02:30:50;;;;;;;6.90;1.10;;;4.10;89.10;;;;;;4992092;28;20022;-81
2021/04/08 02:33:27;;;;;;;1.23;0.85;;;4.20;89.10;;;;;;4975299;28;20493;-79
2021/04/08 02:35:53;;;;;;;1.50;0.90;;;4.20;89.10;;;;;;4991674;28;20055;-81
2021/04/08 02:38:24;;;;;;;1.23;0.77;;;4.20;89.00;;;;;;4992585;28;20057;-80
2021/04/08 02:40:50;;;;;;;1.25;0.85;;;4.20;88.80;;;;;;4992454;28;20113;-79
2021/04/08 02:43:16;;;;;;;2.30;0.80;;;4.20;89.00;;;;;;4992589;28;20023;-80
2021/04/08 02:45:43;;;;;;;2.28;1.30;;;4.20;88.60;;;;;;4991738;28;20026;-81
2021/04/08 02:48:10;;;;;;;1.25;0.80;;;4.10;88.60;;;;;;4992524;28;20037;-81
2021/04/08 02:50:40;;;;;;;1.33;1.00;;;4.20;88.80;;;;;;4974452;28;20410;-80
2021/04/08 02:53:17;;;;;;;1.40;0.98;;;4.20;88.80;;;;;;4992462;28;20034;-81
2021/04/08 02:55:49;;;;;;;0.75;0.65;;;4.20;88.70;;;;;;4991962;28;20033;-81
2021/04/08 02:58:16;;;;;;;4.53;1.00;;;4.30;88.60;;;;;;4992571;28;20117;-80
2021/04/08 03:01:06;;;;;;;3.03;0.70;;;4.30;88.60;;;;;;4992122;28;20030;-80
2021/04/08 03:03:39;;;;;;;0.85;0.65;;;4.30;88.50;;;;;;4991924;28;20023;-76
2021/04/08 03:06:07;;;;;;;1.45;0.80;;;4.30;88.60;;;;;;4992407;28;20021;-81
2021/04/08 03:08:35;;;;;;;2.28;1.02;;;4.30;88.60;;;;;;4973604;28;20065;-78
2021/04/08 03:11:04;;;;;;;3.17;0.73;;;4.30;88.50;;;;;;4995082;28;20175;-80
2021/04/08 03:13:33;;;;;;;1.85;0.70;;;4.40;88.70;;;;;;4978790;28;20505;-81
2021/04/08 03:16:05;;;;;;;1.30;0.70;;;4.40;88.70;;;;;;4978705;28;20455;-82
2021/04/08 03:18:32;;;;;;;1.33;0.90;;;4.40;88.60;;;;;;4996051;28;20032;-81
2021/04/08 03:20:58;;;;;;;1.30;1.17;;;4.40;88.70;;;;;;4995548;28;20026;-80
2021/04/08 03:23:25;;;;;;;1.15;0.80;;;4.40;88.50;;;;;;4996238;28;20042;-81
2021/04/08 03:25:53;;;;;;;1.35;0.90;;;4.50;88.50;;;;;;4995312;28;20077;-80
2021/04/08 03:28:20;;;;;;;1.85;0.95;;;4.40;88.60;;;;;;4995540;28;20034;-80
2021/04/08 03:30:46;;;;;;;1.30;0.90;;;4.40;88.90;;;;;;4995161;28;20052;-80
2021/04/08 03:33:14;;;;;;;5.07;1.17;;;4.40;88.90;;;;;;4995748;28;20479;-81
2021/04/08 03:35:45;;;;;;;3.22;1.27;;;4.40;88.80;;;;;;4994740;28;20053;-81
2021/04/08 03:38:11;;;;;;;4.10;1.13;;;4.40;88.80;;;;;;4978372;28;20497;-81
2021/04/08 03:40:37;;;;;;;1.63;1.15;;;4.50;88.80;;;;;;4995300;28;20038;-80
2021/04/08 03:43:04;;;;;;;6.63;1.10;;;4.50;89.00;;;;;;4978240;28;20018;-81
2021/04/08 03:45:30;;;;;;;1.50;0.98;;;4.50;88.80;;;;;;4978283;28;20018;-81
2021/04/08 03:48:00;;;;;;;3.28;0.80;;;4.50;88.70;;;;;;4994948;28;20394;-80
2021/04/08 03:50:28;;;;;;;1.10;0.73;;;4.50;88.70;;;;;;4995555;28;20585;-81
2021/04/08 03:52:54;;;;;;;0.95;0.77;;;4.50;88.70;;;;;;4994848;28;20023;-80
2021/04/08 03:55:22;;;;;;;3.13;0.82;;;4.50;88.60;;;;;;4995575;28;20046;-81
2021/04/08 03:57:50;;;;;;;1.65;0.93;;;4.50;88.60;;;;;;4977999;28;20030;-78
2021/04/08 04:00:20;;;;;;;1.63;0.80;;;4.50;88.60;;;;;;4995618;28;20038;-81
2021/04/08 04:02:46;;;;;;;1.95;0.88;;;4.60;88.70;;;;;;4994670;28;20383;-80
2021/04/08 04:05:13;;;;;;;0.90;0.90;;;4.60;88.60;;;;;;4995633;28;20026;-79
2021/04/08 04:07:41;;;;;;;2.08;1.08;;;4.60;88.60;;;;;;4984018;28;20036;-85
2021/04/08 04:10:07;;;;;;;1.75;1.10;;;4.70;88.70;;;;;;4989586;28;20501;-86
2021/04/08 04:12:38;;;;;;;1.17;1.08;;;4.60;88.70;;;;;;4981226;28;20022;-86
2021/04/08 04:15:05;;;;;;;2.42;1.38;;;4.70;88.80;;;;;;4999388;28;20054;-86
2021/04/08 04:17:32;;;;;;;3.70;1.35;;;4.60;88.40;;;;;;4999983;28;20038;-86
2021/04/08 04:19:59;;;;;;;0.93;0.77;;;4.60;88.50;;;;;;4998387;28;20113;-85
2021/04/08 04:22:28;;;;;;;2.42;1.10;;;4.60;88.50;;;;;;5006398;28;20022;-85
2021/04/08 04:24:53;;;;;;;7.95;1.35;;;4.60;88.50;;;;;;5010651;28;20529;-85
2021/04/08 04:27:19;;;;;;;2.65;1.55;;;4.60;88.60;;;;;;5000958;28;20018;-84
2021/04/08 04:29:45;;;;;;;5.55;1.95;;;4.60;88.80;;;;;;5007432;28;20093;-85
2021/04/08 04:32:11;;;;;;;1.65;0.82;;;4.60;88.70;;;;;;4991433;28;20074;-85
2021/04/08 04:34:41;;;;;;;0.80;0.80;;;4.60;88.60;;;;;;5016932;28;20046;-85
2021/04/08 04:37:07;;;;;;;2.45;0.90;;;4.60;88.70;;;;;;4980827;28;20027;-85
2021/04/08 04:39:33;;;;;;;3.58;1.10;;;4.60;88.60;;;;;;4977234;28;20118;-85
2021/04/08 04:41:58;;;;;;;1.30;1.20;;;4.70;88.70;;;;;;4962065;28;20403;-86
2021/04/08 04:44:24;;;;;;;2.17;1.08;;;4.60;88.40;;;;;;4996125;28;20026;-84
2021/04/08 04:46:51;;;;;;;0.60;0.60;;;4.70;88.70;;;;;;4998714;28;20038;-84
2021/04/08 04:49:17;;;;;;;1.08;0.90;;;4.60;88.70;;;;;;4998457;28;20029;-84
2021/04/08 04:51:42;;;;;;;1.42;1.00;;;4.60;88.60;;;;;;4998350;28;20026;-85
2021/04/08 04:54:08;;;;;;;2.03;1.15;;;4.60;88.30;;;;;;5005411;28;20023;-85
2021/04/08 04:56:34;;;;;;;1.23;0.77;;;4.60;88.40;;;;;;5017606;28;20023;-83
2021/04/08 04:58:59;;;;;;;2.70;1.00;;;4.50;88.30;;;;;;5017014;28;20895;-84
2021/04/08 05:01:25;;;;;;;1.65;0.80;;;4.50;88.30;;;;;;5000267;28;20038;-84
2021/04/08 05:03:51;;;;;;;3.38;1.05;;;4.60;88.50;;;;;;4999618;28;20037;-83
2021/04/08 05:06:16;;;;;;;1.27;1.08;;;4.60;88.40;;;;;;5016786;28;20021;-84
2021/04/08 05:08:42;;;;;;;3.72;0.90;;;4.60;88.20;;;;;;5015495;28;20058;-80
2021/04/08 05:11:08;;;;;;;1.67;0.95;;;4.60;88.30;;;;;;5010289;28;20026;-85
2021/04/08 05:13:33;;;;;;;3.08;0.95;;;4.60;88.20;;;;;;4997552;28;20031;-84
2021/04/08 05:15:59;;;;;;;1.63;0.82;;;4.70;88.40;;;;;;4994834;28;20109;-82
2021/04/08 05:18:25;;;;;;;1.42;0.90;;;4.70;88.40;;;;;;4974136;28;20431;-81
2021/04/08 05:20:50;;;;;;;3.22;1.38;;;4.80;88.20;;;;;;4991162;28;20511;-78
2021/04/08 05:23:16;;;;;;;3.28;1.20;;;4.80;88.20;;;;;;4974489;28;20030;-81
2021/04/08 05:25:42;;;;;;;3.33;1.20;;;4.80;88.20;;;;;;4992227;28;20114;-78
2021/04/08 05:28:08;;;;;;;1.65;1.23;;;4.90;88.30;;;;;;4974086;28;20034;-78
2021/04/08 05:30:34;;;;;;;2.50;1.25;;;4.80;88.20;;;;;;4991552;28;20117;-81
2021/04/08 05:32:59;;;;;;;2.25;0.90;;;4.90;88.20;;;;;;4991189;28;20455;-81
2021/04/08 05:35:25;;;;;;;1.70;0.95;;;4.90;88.10;;;;;;4991929;28;20184;-81
2021/04/08 05:37:51;;;;;;;7.35;1.55;;;4.90;88.10;;;;;;4992531;28;20026;-82
2021/04/08 05:40:17;;;;;;;1.90;0.95;;;4.90;88.10;;;;;;4987805;28;20129;-72
2021/04/08 05:42:44;;;;;;;2.00;1.50;;;4.90;88.00;;;;;;4993356;28;20035;-71
2021/04/08 05:45:11;;;;;;;4.30;1.65;;;4.90;87.90;;;;;;4993371;28;20026;-72
2021/04/08 05:47:36;;;;;;;4.53;1.63;;;4.80;87.90;;;;;;4993563;28;20089;-71
2021/04/08 05:50:03;;;;;;;2.55;1.55;;;4.90;88.10;;;;;;4992593;28;20026;-72
2021/04/08 05:52:28;;;;;;;6.10;1.73;;;4.90;88.10;;;;;;4993595;28;20022;-71
2021/04/08 05:54:54;;;;;;;4.85;2.30;;;4.90;87.90;;;;;;4993109;28;20029;-72
2021/04/08 05:57:20;;;;;;;5.30;2.20;;;4.90;87.80;;;;;;4976576;28;20442;-71
2021/04/08 05:59:45;;;;;;;3.05;1.60;;;4.90;87.90;;;;;;4975663;28;20034;-71
2021/04/08 06:02:11;;;;;;;2.33;1.55;;;4.90;87.90;;;;;;4993575;28;20030;-71
2021/04/08 06:04:36;;;;;;;4.55;2.13;;;4.90;87.90;;;;;;4993883;28;20389;-70
2021/04/08 06:07:02;;;;;;;6.15;1.80;;;5.00;87.90;;;;;;4993205;28;20483;-72
2021/04/08 06:09:28;;;;;;;3.50;2.10;;;5.00;87.80;;;;;;4992878;28;20024;-71
2021/04/08 06:11:54;;;;;;;2.63;1.80;;;5.00;87.60;;;;;;4993262;28;20471;-72
2021/04/08 06:14:19;;;;;;;4.40;2.25;;;5.10;87.70;;;;;;4975762;28;20130;-72
2021/04/08 06:16:45;;;;;;;7.63;2.70;;;5.10;87.60;;;;;;4992856;28;20458;-72
2021/04/08 06:19:11;;;;;;;5.05;2.35;;;5.10;87.50;;;;;;4992592;28;20387;-70
2021/04/08 06:21:40;;;;;;;7.00;2.50;;;5.10;87.10;;;;;;4993049;28;20026;-71
2021/04/08 06:24:09;;;;;;;6.75;2.33;;;5.10;87.20;;;;;;4992123;28;20268;-71
2021/04/08 06:26:36;;;;;;;3.95;2.05;;;5.10;87.50;;;;;;4992720;28;20033;-71
2021/04/08 06:29:02;;;;;;;3.92;2.13;;;5.10;87.40;;;;;;4991743;28;20096;-71
2021/04/08 06:31:28;;;;;;;4.03;2.22;;;5.10;87.30;;;;;;4992531;28;20034;-71
2021/04/08 06:33:54;;;;;;;5.70;2.38;;;5.20;87.30;;;;;;4992025;28;20026;-72
2021/04/08 06:36:21;;;;;;;3.17;2.22;;;5.10;87.20;;;;;;4974877;28;20053;-70
2021/04/08 06:38:48;;;;;;;5.38;2.45;;;5.20;87.30;;;;;;4992512;28;20120;-71
2021/04/08 06:41:15;;;;;;;11.57;1.92;;;5.20;87.20;;;;;;4992365;28;20048;-71
2021/04/08 06:43:44;;;;;;;3.88;2.08;;;5.10;87.20;;;;;;4992169;28;20370;-71
2021/04/08 06:46:14;;;;;;;7.55;2.17;;;5.10;87.30;;;;;;4991222;28;20052;-71
2021/04/08 06:48:45;;;;;;;5.07;2.10;;;5.00;87.60;;;;;;4992057;28;20026;-71
2021/04/08 06:51:15;;;;;;;5.40;2.75;;;5.00;87.60;;;;;;4991572;28;20106;-72
2021/04/08 06:53:40;;;;;;;3.85;1.70;;;4.90;87.70;;;;;;4992255;28;20030;-71
2021/04/08 06:56:11;;;;;;;4.95;2.78;;;4.90;87.70;;;;;;4991650;28;20049;-71
2021/04/08 06:58:39;;;;;;;5.10;2.10;;;4.90;87.70;;;;;;4992138;28;20478;-71
2021/04/08 07:01:08;;;;;;;9.77;2.78;;;4.90;87.30;;;;;;4991668;28;20487;-71
2021/04/08 07:03:35;;;;;;;3.88;2.05;;;4.80;87.30;;;;;;4992246;28;20320;-72
2021/04/08 07:06:02;;;;;;;5.82;2.50;;;4.80;87.50;;;;;;4991741;28;20030;-72
2021/04/08 07:08:30;;;;;;;5.53;2.30;;;4.90;87.40;;;;;;4992182;28;20026;-71
2021/04/08 07:10:56;;;;;;;9.07;2.95;;;4.90;87.20;;;;;;4991620;28;20018;-71
2021/04/08 07:13:25;;;;;;;6.05;2.20;;;5.00;87.20;;;;;;4992066;28;20034;-71
2021/04/08 07:15:54;;;;;;;3.10;1.80;;;5.00;87.10;;;;;;4991807;28;20033;-71
2021/04/08 07:18:20;;;;;;;4.03;2.00;;;5.00;87.00;;;;;;4991599;28;20057;-71
2021/04/08 07:20:48;;;;;;;2.33;1.70;;;5.10;86.60;;;;;;4991780;28;20022;-71
2021/04/08 07:23:14;;;;;;;6.28;2.50;;;5.20;85.40;;;;;;4990967;28;20033;-71
2021/04/08 07:25:59;;;;;;;4.72;2.55;;;5.20;84.90;;;;;;4991785;28;20375;-71
2021/04/08 07:28:36;;;;;;;2.80;2.13;;;5.40;84.70;;;;;;4991978;28;20030;-72
2021/04/08 07:31:21;;;;;;;7.82;2.42;;;5.50;84.60;;;;;;4991222;28;20138;-71
2021/04/08 07:33:47;;;;;;;4.53;2.17;;;5.60;84.40;;;;;;4991783;28;20471;-72
2021/04/08 07:36:24;;;;;;;4.18;2.20;;;5.70;84.30;;;;;;4990953;28;20066;-71
2021/04/08 07:38:50;;;;;;;3.28;1.50;;;5.90;83.90;;;;;;4991883;28;20482;-71
2021/04/08 07:41:42;;;;;;;2.67;1.90;;;5.90;83.50;;;;;;4991225;28;20030;-72
2021/04/08 07:44:11;;;;;;;2.60;1.80;;;6.00;83.30;;;;;;4988378;28;20529;-70
2021/04/08 07:46:42;;;;;;;6.30;1.88;;;6.10;82.80;;;;;;4992083;28;20018;-72
2021/04/08 07:49:33;;;;;;;3.08;1.40;;;6.10;82.70;;;;;;4991408;28;20467;-71
2021/04/08 07:52:26;;;;;;;4.85;2.00;;;6.20;82.60;;;;;;4991371;28;20477;-72
2021/04/08 07:55:00;;;;;;;5.15;2.15;;;6.20;81.40;;;;;;4991821;28;20033;-72
2021/04/08 07:57:27;;;;;;;3.95;1.85;;;6.20;81.70;;;;;;4994901;28;20033;-72
2021/04/08 07:59:53;;;;;;;5.90;1.90;;;6.10;82.00;;;;;;4995637;28;20100;-73
2021/04/08 08:02:26;;;;;;;2.05;1.65;;;6.10;82.00;;;;;;4995457;28;20023;-72
2021/04/08 08:05:18;;;;;;;6.03;1.80;;;6.10;82.20;;;;;;4995251;28;20030;-71
2021/04/08 08:07:46;;;;;;;3.45;1.38;;;6.20;81.70;;;;;;4995242;28;20033;-71
2021/04/08 08:10:24;;;;;;;4.00;2.05;;;6.10;81.90;;;;;;4994353;28;20073;-72
2021/04/08 08:12:51;;;;;;;2.45;1.38;;;6.20;81.50;;;;;;4994939;28;20398;-72
2021/04/08 08:15:23;;;;;;;2.95;1.55;;;6.10;81.20;;;;;;4994493;28;20074;-71
2021/04/08 08:17:49;;;;;;;4.55;2.03;;;6.20;81.50;;;;;;4995135;28;20023;-72
2021/04/08 08:20:16;;;;;;;7.43;1.70;;;6.10;81.30;;;;;;4994461;28;20261;-71
2021/04/08 08:22:43;;;;;;;2.42;1.67;;;6.10;80.30;;;;;;4994935;28;20517;-71
2021/04/08 08:25:10;;;;;;;2.45;1.50;;;6.20;79.40;;;;;;4976643;28;20029;-72
2021/04/08 08:27:44;;;;;;;4.97;2.38;;;6.20;79.20;;;;;;4994942;28;20092;-71
2021/04/08 08:30:22;;;;;;;3.13;1.73;;;6.20;78.60;;;;;;4994085;28;20179;-71
2021/04/08 08:33:18;;;;;;;1.65;1.33;;;6.20;78.50;;;;;;4994796;28;20112;-72
2021/04/08 08:35:44;;;;;;;2.85;1.20;;;6.20;76.80;;;;;;4965107;28;20047;-72
2021/04/08 08:38:13;;;;;;;2.75;1.30;;;6.30;77.10;;;;;;4993953;28;20030;-72
2021/04/08 08:40:40;;;;;;;4.53;1.27;;;6.30;77.10;;;;;;4994742;28;20018;-72
2021/04/08 08:43:07;;;;;;;3.30;1.50;;;6.40;77.50;;;;;;4993844;28;20023;-71
2021/04/08 08:45:34;;;;;;;3.05;1.75;;;6.40;75.50;;;;;;4994636;28;20023;-72
2021/04/08 08:48:06;;;;;;;2.95;1.55;;;6.50;74.90;;;;;;4993908;28;20341;-71
2021/04/08 08:50:32;;;;;;;3.70;1.80;;;6.60;74.50;;;;;;4994679;28;20412;-71
2021/04/08 08:53:00;;;;;;;2.05;1.30;;;6.70;72.70;;;;;;4994158;28;20466;-73
2021/04/08 08:55:27;;;;;;;1.80;1.08;;;6.70;71.50;;;;;;4994490;28;20478;-72
2021/04/08 08:57:55;;;;;;;1.13;1.00;;;6.80;71.70;;;;;;4993993;28;20356;-72
2021/04/08 09:00:22;;;;;;;3.45;1.33;;;6.80;70.70;;;;;;4993926;28;20108;-72
2021/04/08 09:02:49;;;;;;;2.42;1.48;;;7.00;70.60;;;;;;4994391;28;20122;-71
2021/04/08 09:05:18;;;;;;;5.68;1.52;;;7.20;69.80;;;;;;4976008;28;20036;-71
2021/04/08 09:07:49;;;;;;;5.85;2.10;;;7.30;69.40;;;;;;4993229;28;20022;-71
2021/04/08 09:10:24;;;;;;;1.92;1.58;;;7.40;69.20;;;;;;4993269;28;20049;-72
2021/04/08 09:12:50;;;;;;;4.05;1.80;;;7.40;69.10;;;;;;4993801;28;20374;-72
2021/04/08 09:15:18;;;;;;;3.38;1.50;;;7.40;67.20;;;;;;4993500;28;20022;-72
2021/04/08 09:17:45;;;;;;;2.10;1.40;;;7.30;65.60;;;;;;4993898;28;20053;-71
2021/04/08 09:20:17;;;;;;;2.17;1.48;;;7.30;65.40;;;;;;4993210;28;20042;-70
2021/04/08 09:23:03;;;;;;;1.40;1.23;;;7.40;65.10;;;;;;4994065;28;20022;-71
2021/04/08 09:25:41;;;;;;;5.20;1.42;;;7.40;65.00;;;;;;4993847;28;20026;-72
2021/04/08 09:28:12;;;;;;;3.22;1.52;;;7.50;64.40;;;;;;4993259;28;20461;-72
2021/04/08 09:30:59;;;;;;;1.75;1.55;;;7.60;63.10;;;;;;4993895;28;20030;-71
2021/04/08 09:33:41;;;;;;;2.78;1.65;;;7.60;61.20;;;;;;4975783;28;20029;-71
2021/04/08 09:36:22;;;;;;;3.85;1.90;;;7.60;61.30;;;;;;4992730;28;20050;-72
2021/04/08 09:39:11;;;;;;;3.72;1.70;;;7.70;61.10;;;;;;4975835;28;20447;-71
2021/04/08 09:41:49;;;;;;;2.42;1.38;;;7.80;61.60;;;;;;4985267;28;20351;-71
2021/04/08 09:44:16;;;;;;;2.95;1.45;;;7.90;61.30;;;;;;4992685;28;20031;-71
2021/04/08 09:46:44;;;;;;;5.35;1.90;;;7.90;62.00;;;;;;4976003;28;20387;-71
2021/04/08 09:49:10;;;;;;;6.07;2.85;;;7.90;61.50;;;;;;4992690;28;20120;-72
2021/04/08 09:51:44;;;;;;;2.67;2.03;;;7.90;60.20;;;;;;4993515;28;20022;-72
2021/04/08 09:54:16;;;;;;;4.47;1.77;;;7.90;60.40;;;;;;4992699;28;20029;-71
2021/04/08 09:56:48;;;;;;;2.90;1.80;;;8.10;58.40;;;;;;4975627;28;20104;-72
2021/04/08 09:59:17;;;;;;;3.42;1.67;;;8.20;58.10;;;;;;4992502;28;20022;-72
2021/04/08 10:01:43;;;;;;;3.50;2.13;;;8.40;58.60;;;;;;4993084;28;20031;-71
2021/04/08 10:04:23;;;;;;;4.35;2.22;;;8.50;56.60;;;;;;4992364;28;20026;-71
2021/04/08 10:07:08;;;;;;;3.35;1.85;;;8.60;57.00;;;;;;4993015;28;20030;-71
2021/04/08 10:09:34;;;;;;;6.32;2.03;;;8.70;56.80;;;;;;4992704;28;20404;-72
2021/04/08 10:12:00;;;;;;;3.38;1.85;;;8.70;56.00;;;;;;4993079;28;20101;-72
2021/04/08 10:14:31;;;;;;;4.05;1.80;;;8.80;56.00;;;;;;4974684;28;20054;-71
2021/04/08 10:17:10;;;;;;;2.58;1.52;;;8.90;55.80;;;;;;4992897;28;20037;-71
2021/04/08 10:19:39;;;;;;;3.30;2.30;;;9.00;55.60;;;;;;4991947;28;20088;-71
2021/04/08 10:22:06;;;;;;;5.95;2.17;;;9.00;54.30;;;;;;4992126;28;20058;-73
2021/04/08 10:24:34;;;;;;;4.65;1.85;;;9.00;50.80;;;;;;4992632;28;20097;-71
2021/04/08 10:27:01;;;;;;;4.28;2.00;;;9.00;49.50;;;;;;4992641;28;20029;-71
2021/04/08 10:29:33;;;;;;;9.10;2.38;;;9.00;49.40;;;;;;4991963;28;20034;-71
2021/04/08 10:31:59;;;;;;;4.50;2.00;;;9.10;50.60;;;;;;4992217;28;20477;-72
2021/04/08 10:34:32;;;;;;;4.50;2.00;;;9.10;50.70;;;;;;4991545;28;20230;-72
2021/04/08 10:36:58;;;;;;;3.63;2.35;;;9.10;49.50;;;;;;4992399;28;20026;-71
2021/04/08 10:39:32;;;;;;;4.38;1.92;;;9.10;49.10;;;;;;4991665;28;20030;-71
2021/04/08 10:42:10;;;;;;;2.45;1.70;;;9.10;48.70;;;;;;4992441;28;20018;-72
2021/04/08 10:44:37;;;;;;;5.65;1.95;;;9.20;49.10;;;;;;4992139;28;20048;-71
2021/04/08 10:47:09;;;;;;;3.67;2.22;;;9.10;49.20;;;;;;4974810;28;20358;-72
2021/04/08 10:49:36;;;;;;;;;;;9.20;49.80;;;;;;4992477;28;20108;-71
2021/04/08 10:52:05;;;;;;;3.40;1.77;;;9.20;49.10;;;;;;4992308;28;20350;-72
2021/04/08 10:54:32;;;;;;;5.15;2.85;;;9.20;49.70;;;;;;4991748;28;20022;-71
2021/04/08 10:56:59;;;;;;;4.47;2.20;;;9.30;49.10;;;;;;4991891;28;20045;-72
2021/04/08 10:59:26;;;;;;;3.60;2.10;;;9.30;49.40;;;;;;4991588;28;20027;-71
2021/04/08 11:01:53;;;;;;;3.30;1.90;;;9.30;48.90;;;;;;4992236;28;20085;-70
2021/04/08 11:04:21;;;;;;;6.35;2.00;;;9.30;49.50;;;;;;4991860;28;20026;-72
2021/04/08 11:06:48;;;;;;;4.75;2.45;;;9.40;50.20;;;;;;4991835;28;20360;-71
2021/04/08 11:09:28;;;;;;;5.40;2.33;;;9.40;49.50;;;;;;4973988;28;20027;-71
2021/04/08 11:11:56;;;;;;;4.38;2.72;;;9.40;48.50;;;;;;4992127;28;20019;-71
2021/04/08 11:14:30;;;;;;;8.15;2.75;;;9.30;48.30;;;;;;4991398;28;20359;-72
2021/04/08 11:16:57;;;;;;;7.72;3.42;;;9.40;48.60;;;;;;4992107;28;20113;-72
2021/04/08 11:19:24;;;;;;;4.10;2.40;;;9.30;48.50;;;;;;4973915;28;20081;-72
2021/04/08 11:21:51;;;;;;;3.92;2.17;;;9.40;49.10;;;;;;4992022;28;20035;-72
2021/04/08 11:24:17;;;;;;;4.40;1.90;;;9.40;49.30;;;;;;4991464;28;20488;-71
2021/04/08 11:26:51;;;;;;;5.18;2.28;;;9.40;49.20;;;;;;4991749;28;20030;-71
2021/04/08 11:29:23;;;;;;;4.72;2.42;;;9.50;49.40;;;;;;4991392;28;20084;-72
2021/04/08 11:32:00;;;;;;;3.40;1.90;;;9.60;49.40;;;;;;4976864;28;20117;-71
2021/04/08 11:34:26;;;;;;;5.07;2.30;;;9.60;49.50;;;;;;4994699;28;20061;-72
2021/04/08 11:36:53;;;;;;;4.00;1.95;;;9.70;47.90;;;;;;4995640;28;20053;-72
2021/04/08 11:39:20;;;;;;;3.70;2.17;;;9.60;47.60;;;;;;4995441;28;20076;-72
2021/04/08 11:41:45;;;;;;;5.35;2.35;;;9.60;47.40;;;;;;4995623;28;20033;-71
2021/04/08 11:44:23;;;;;;;3.42;2.40;;;9.60;47.30;;;;;;4994879;28;20030;-72
2021/04/08 11:46:48;;;;;;;6.72;2.70;;;9.60;46.90;;;;;;4995259;28;20109;-72
2021/04/08 11:49:19;;;;;;;4.60;3.28;;;9.70;48.00;;;;;;4994620;28;20494;-71
2021/04/08 11:51:48;;;;;;;4.05;2.20;;;9.80;48.70;;;;;;4995478;28;20022;-70
2021/04/08 11:54:20;;;;;;;5.78;2.25;;;9.90;48.90;;;;;;4994748;28;20014;-71
2021/04/08 11:56:46;;;;;;;3.83;2.08;;;10.00;48.50;;;;;;4995258;28;20455;-71
2021/04/08 11:59:19;;;;;;;7.50;3.08;;;10.00;49.20;;;;;;4994799;28;20053;-72
2021/04/08 12:01:52;;;;;;;5.03;2.60;;;10.00;48.70;;;;;;4995284;28;20465;-72
2021/04/08 12:04:23;;;;;;;3.88;2.50;;;10.00;48.90;;;;;;4977156;28;20379;-72
2021/04/08 12:06:53;;;;;;;9.35;2.70;;;10.00;49.20;;;;;;4994994;28;20030;-71
2021/04/08 12:09:32;;;;;;;6.80;3.13;;;10.00;47.80;;;;;;4994247;28;20379;-72
2021/04/08 12:11:58;;;;;;;6.40;2.67;;;9.90;48.00;;;;;;4995190;28;20459;-71
2021/04/08 12:14:24;;;;;;;4.95;2.45;;;9.80;47.50;;;;;;4994751;28;20037;-71
2021/04/08 12:17:12;;;;;;;9.30;2.40;;;9.70;48.30;;;;;;4994771;28;20033;-72
2021/04/08 12:19:38;;;;;;;5.40;2.55;;;9.80;48.90;;;;;;4977455;28;20069;-72
2021/04/08 12:22:07;;;;;;;4.70;2.00;;;9.80;49.30;;;;;;4995116;28;20023;-71
2021/04/08 12:24:33;;;;;;;3.47;2.05;;;9.90;49.30;;;;;;4994178;28;20586;-72
2021/04/08 12:26:59;;;;;;;5.25;2.95;;;10.00;49.40;;;;;;4995084;28;20026;-71
2021/04/08 12:29:25;;;;;;;6.72;2.60;;;10.10;49.70;;;;;;4994423;28;20027;-71
2021/04/08 12:31:56;;;;;;;5.35;3.03;;;10.30;49.50;;;;;;4977123;28;20030;-72
2021/04/08 12:34:22;;;;;;;5.32;2.42;;;10.30;49.10;;;;;;4994183;28;20065;-71
2021/04/08 12:36:49;;;;;;;6.88;2.55;;;10.30;49.10;;;;;;4994674;28;20077;-71
2021/04/08 12:39:16;;;;;;;6.57;2.65;;;10.20;49.10;;;;;;4994127;28;20030;-72
2021/04/08 12:41:42;;;;;;;3.78;2.40;;;10.20;48.50;;;;;;4994555;28;20057;-71
2021/04/08 12:44:08;;;;;;;5.38;2.83;;;10.10;48.40;;;;;;4993801;28;20463;-70
2021/04/08 12:46:34;;;;;;;5.70;2.83;;;10.10;48.30;;;;;;4993901;28;20019;-71
2021/04/08 12:49:00;;;;;;;6.32;3.00;;;10.10;48.60;;;;;;4994503;28;20023;-71
2021/04/08 12:51:26;;;;;;;5.03;2.83;;;10.10;48.00;;;;;;4993815;28;20081;-72
2021/04/08 12:53:53;;;;;;;7.72;3.17;;;10.10;48.50;;;;;;4994396;28;20026;-71
2021/04/08 12:56:19;;;;;;;7.05;3.20;;;10.10;47.90;;;;;;4994068;28;20029;-71
2021/04/08 12:58:45;;;;;;;6.35;3.17;;;9.90;46.80;;;;;;4994552;28;20031;-71
2021/04/08 13:01:10;;;;;;;5.65;3.00;;;9.90;47.70;;;;;;4994241;28;20030;-72
2021/04/08 13:03:36;;;;;;;16.30;3.45;;;10.00;47.80;;;;;;4993419;28;20032;-71
2021/04/08 13:06:02;;;;;;;8.57;3.53;;;10.00;48.20;;;;;;4994515;28;20026;-71